K5-CU

EHJJ · Netherlands

METAR history EHJJ · K5-CU

Below you see METARs of the last few days. Select a year to browse through older METARs, from the year 2007 onwards.

July 19, 2024

Time Code Weather Temp. Visibility Ceiling Wind METAR/SPECI
19:55
V
20 °C 10 km+ - 130° 130° 15 kt METAR EHJA 191755Z AUTO 13015KT 090V170 9999 NSC 20/17 Q1015
19:25
V
20 °C 10 km+ - 130° 130° 15 kt METAR EHJA 191725Z AUTO 13015KT 030V180 9999 NSC 20/17 Q1015
18:55
V
19 °C 8 km - 120° 120° 15 kt METAR EHJA 191655Z AUTO 12015KT 070V170 8000 NCD 19/17 Q1016
18:25
V
19 °C 10 km+ - 120° 120° 13 kt METAR EHJA 191625Z AUTO 12013KT 050V180 9999 NCD 19/17 Q1016
17:55
V
19 °C 10 km+ - 150° 150° 12 kt METAR EHJA 191555Z AUTO 15012KT 9999 NCD 19/17 Q1016
17:25
V
19 °C 10 km+ - 130° 130° 14 kt METAR EHJA 191525Z AUTO 13014KT 070V170 9999 NCD 19/17 Q1017
16:55
V
19 °C 9 km - 150° 150° 13 kt METAR EHJA 191455Z AUTO 15013KT 9000 NCD 19/17 Q1017
16:25
V
19 °C 9 km - Var Var 12 kt METAR EHJA 191425Z AUTO VRB12KT 9000 NCD 19/17 Q1017
15:55
V
18 °C 10 km+ - 130° 130° 14 kt METAR EHJA 191355Z AUTO 13014KT 070V170 9999 NCD 18/17 Q1017
15:25
V
18 °C 10 km+ - Var Var 13 kt METAR EHJA 191325Z AUTO VRB13KT 9999 NCD 18/17 Q1018
14:55
V
18 °C 10 km+ - 150° 150° 15 kt METAR EHJA 191255Z AUTO 15015KT 9999 NSC 18/17 Q1018
14:25
V
18 °C 10 km+ - 150° 150° 16 kt METAR EHJA 191225Z AUTO 15016KT 9999 NSC 18/17 Q1018
13:55
V
18 °C 10 km+ - 130° 130° 18 kt METAR EHJA 191155Z AUTO 13018KT 080V150 9999 NSC 18/17 Q1018
13:25
V
18 °C 10 km+ - 130° 130° 17 kt METAR EHJA 191125Z AUTO 13017KT 070V150 9999 NSC 18/17 Q1018
12:55
V
18 °C 10 km+ - 130° 130° 16 kt METAR EHJA 191055Z AUTO 13016KT 090V170 9999 NSC 18/17 Q1018
12:25
V
18 °C 10 km+ - 130° 130° 17 kt METAR EHJA 191025Z AUTO 13017KT 090V160 9999 NSC 18/17 Q1019
11:55
V
18 °C 10 km+ - 130° 130° 17 kt METAR EHJA 190955Z AUTO 13017KT 100V160 9999 NSC 18/17 Q1019
11:25
V
18 °C 10 km+ - 130° 130° 19 kt METAR EHJA 190925Z AUTO 13019KT 090V150 9999 NSC 18/16 Q1019
10:55
V
18 °C 10 km+ - 130° 130° 20 kt METAR EHJA 190855Z AUTO 13020KT 090V170 9999 NSC 18/16 Q1019
10:25
V
18 °C 10 km+ - 130° 130° 19 kt METAR EHJA 190825Z AUTO 13019KT 9999 NSC 18/16 Q1019
09:55
V
18 °C 10 km+ - 130° 130° 20 kt METAR EHJA 190755Z AUTO 13020KT 080V160 9999 NSC 18/16 Q1019
09:25
V
18 °C 10 km+ - 130° 130° 20 kt METAR EHJA 190725Z AUTO 13020KT 090V160 9999 NSC 18/16 Q1019
08:55
V
18 °C 10 km+ - 120° 120° 21 kt METAR EHJA 190655Z AUTO 12021KT 070V160 9999 NCD 18/16 Q1019
08:25
V
18 °C 10 km+ - 130° 130° 19 kt METAR EHJA 190625Z AUTO 13019KT 070V160 9999 NCD 18/16 Q1019
07:55
V
18 °C 10 km+ - 150° 150° 19 kt METAR EHJA 190555Z AUTO 15019KT 9999 NSC 18/16 Q1019
07:25
V
18 °C 10 km+ - 130° 130° 18 kt METAR EHJA 190525Z AUTO 13018KT 080V170 9999 NSC 18/17 Q1019
06:55
V
18 °C 9 km - 150° 150° 20 kt METAR EHJA 190455Z AUTO 15020KT 9000 NSC 18/17 Q1019
06:25
V
18 °C 10 km+ - 150° 150° 20 kt METAR EHJA 190425Z AUTO 15020KT 9999 NSC 18/16 Q1020
05:55
V
18 °C 10 km+ - 150° 150° 21 kt METAR EHJA 190355Z AUTO 15021KT 9999 NSC 18/16 Q1019
05:25
V
18 °C 10 km+ - 150° 150° 20 kt METAR EHJA 190325Z AUTO 15020KT 9999 NSC 18/16 Q1019
04:55
V
18 °C 10 km+ - 150° 150° 21 kt METAR EHJA 190255Z AUTO 15021KT 9999 NSC 18/16 Q1019
04:25
V
18 °C 10 km+ - 150° 150° 20 kt METAR EHJA 190225Z AUTO 15020KT 9999 NSC 18/16 Q1020
03:55
V
18 °C 10 km+ - 150° 150° 21 kt METAR EHJA 190155Z AUTO 15021KT 9999 NSC 18/16 Q1020
03:25
V
18 °C 10 km+ - 150° 150° 21 kt METAR EHJA 190125Z AUTO 15021KT 9999 NSC 18/15 Q1020
02:55
V
18 °C 10 km+ - 150° 150° 21 kt METAR EHJA 190055Z AUTO 15021KT 9999 NSC 18/15 Q1020
02:25
V
18 °C 10 km+ - 150° 150° 20 kt METAR EHJA 190025Z AUTO 15020KT 9999 NSC 18/15 Q1020
01:55
V
18 °C 10 km+ - 150° 150° 21 kt METAR EHJA 182355Z AUTO 15021KT 9999 NSC 18/15 Q1020
01:25
V
18 °C 10 km+ - 150° 150° 20 kt METAR EHJA 182325Z AUTO 15020KT 9999 NSC 18/15 Q1021
00:55
V
17 °C 10 km+ - 150° 150° 19 kt METAR EHJA 182255Z AUTO 15019KT 9999 NSC 17/16 Q1021
00:25
V
17 °C 10 km+ - 150° 150° 18 kt METAR EHJA 182225Z AUTO 15018KT 9999 NCD 17/16 Q1021

July 18, 2024

Time Code Weather Temp. Visibility Ceiling Wind METAR/SPECI
23:55
V
17 °C 10 km+ - 130° 130° 17 kt METAR EHJA 182155Z AUTO 13017KT 030V180 9999 NCD 17/16 Q1021
23:25
V
17 °C 10 km+ - 150° 150° 18 kt METAR EHJA 182125Z AUTO 15018KT 9999 NCD 17/16 Q1021
22:55
V
17 °C 10 km+ - 150° 150° 18 kt METAR EHJA 182055Z AUTO 15018KT 9999 NSC 17/16 Q1021
22:25
V
17 °C 10 km+ - 150° 150° 18 kt METAR EHJA 182025Z AUTO 15018KT 9999 NSC 17/16 Q1021
21:55
V
17 °C 10 km+ - 150° 150° 18 kt METAR EHJA 181955Z AUTO 15018KT 9999 NSC 17/16 Q1021
21:25
V
17 °C 10 km+ - 130° 130° 19 kt METAR EHJA 181925Z AUTO 13019KT 080V160 9999 NSC 17/16 Q1021
20:55
V
17 °C 10 km+ - 130° 130° 18 kt METAR EHJA 181855Z AUTO 13018KT 080V170 9999 NSC 17/15 Q1021
20:25
V
17 °C 10 km+ - 130° 130° 18 kt METAR EHJA 181825Z AUTO 13018KT 040V160 9999 NSC 17/15 Q1021
19:55
V
17 °C 10 km+ - 130° 130° 17 kt METAR EHJA 181755Z AUTO 13017KT 060V170 9999 NCD 17/15 Q1021
19:25
V
17 °C 10 km+ - 150° 150° 17 kt METAR EHJA 181725Z AUTO 15017KT 9999 NSC 17/15 Q1021
18:55
V
17 °C 10 km+ - 150° 150° 17 kt METAR EHJA 181655Z AUTO 15017KT 9999 NSC 17/16 Q1021
18:25
V
17 °C 10 km+ - 150° 150° 15 kt METAR EHJA 181625Z AUTO 15015KT 9999 NCD 17/16 Q1021
17:55
V
17 °C 10 km+ - 150° 150° 15 kt METAR EHJA 181555Z AUTO 15015KT 9999 NCD 17/16 Q1021
17:25
V
17 °C 10 km+ - 150° 150° 15 kt METAR EHJA 181525Z AUTO 15015KT 9999 NCD 17/16 Q1021
16:55
V
17 °C 10 km+ - 150° 150° 15 kt METAR EHJA 181455Z AUTO 15015KT 9999 NSC 17/16 Q1022
16:25
V
17 °C 10 km+ - 150° 150° 14 kt METAR EHJA 181425Z AUTO 15014KT 9999 NSC 17/16 Q1022
15:55
V
17 °C 10 km+ - 150° 150° 14 kt METAR EHJA 181355Z AUTO 15014KT 9999 NSC 17/16 Q1022
15:25
V
16 °C 10 km+ - 150° 150° 14 kt METAR EHJA 181325Z AUTO 15014KT 9999 FEW039/// 16/16 Q1022
14:55
V
16 °C 10 km+ - 130° 130° 15 kt METAR EHJA 181255Z AUTO 13015KT 050V170 9999 FEW041/// 16/16 Q1022
14:25
V
16 °C 10 km+ - 120° 120° 14 kt METAR EHJA 181225Z AUTO 12014KT 050V200 9999 NCD 16/15 Q1022
13:55
V
16 °C 10 km+ - 150° 150° 13 kt METAR EHJA 181155Z AUTO 15013KT 9999 NCD 16/15 Q1022
13:25
V
16 °C 10 km+ - 160° 160° 14 kt METAR EHJA 181125Z AUTO 16014KT 9999 NCD 16/15 Q1022
12:55
V
16 °C 10 km+ - 160° 160° 13 kt METAR EHJA 181055Z AUTO 16013KT 9999 NSC 16/15 Q1022
12:25
V
16 °C 10 km+ - 150° 150° 12 kt METAR EHJA 181025Z AUTO 15012KT 9999 NSC 16/15 Q1022
11:55
V
16 °C 10 km+ - Var Var 12 kt METAR EHJA 180955Z AUTO VRB12KT 9999 NSC 16/15 Q1022
11:25
V
16 °C 10 km+ - 160° 160° 10 kt METAR EHJA 180925Z AUTO 16010KT 9999 NCD 16/15 Q1022
10:55
V
16 °C 10 km+ - 170° 170° 10 kt METAR EHJA 180855Z AUTO 17010KT 9999 NCD 16/15 Q1022
10:25
V
16 °C 10 km+ - 170° 170° 10 kt METAR EHJA 180825Z AUTO 17010KT 9999 NCD 16/15 Q1022
09:55
V
16 °C 10 km+ - 170° 170° 10 kt METAR EHJA 180755Z AUTO 17010KT 9999 NCD 16/15 Q1022
09:25
V
16 °C 9 km - 170° 170° 11 kt METAR EHJA 180725Z AUTO 17011KT 9000 NCD 16/15 Q1022
08:55
M
16 °C 5 km - 160° 160° 10 kt METAR EHJA 180655Z AUTO 16010KT 5000 BR FEW001/// 16/15 Q1022
08:25
I
16 °C 4.3 km - 170° 170° 9 kt METAR EHJA 180625Z AUTO 17009KT 4300 BR SCT001/// 16/15 Q1022
07:55
I
15 °C 3.6 km - 170° 170° 10 kt METAR EHJA 180555Z AUTO 17010KT 3600 BR FEW001/// 15/15 Q1022
07:25
I
15 °C 3.4 km - 150° 150° 8 kt METAR EHJA 180525Z AUTO 15008KT 3400 BR NSC 15/15 Q1021
06:55
I
15 °C 4 km - 160° 160° 7 kt METAR EHJA 180455Z AUTO 16007KT 4000 BR NSC 15/15 Q1021
06:25
I
15 °C 4 km - 160° 160° 8 kt METAR EHJA 180425Z AUTO 16008KT 4000 BR NSC 15/15 Q1022
05:55
I
15 °C 4.6 km - 160° 160° 9 kt METAR EHJA 180355Z AUTO 16009KT 4600 BR NSC 15/15 Q1021
05:25
V
15 °C 8 km - 160° 160° 8 kt METAR EHJA 180325Z AUTO 16008KT 8000 NSC 15/15 Q1021
04:55
V
15 °C 10 km+ - 170° 170° 7 kt METAR EHJA 180255Z AUTO 17007KT 9999 NSC 15/15 Q1021
04:25
V
15 °C 10 km+ - 190° 190° 6 kt METAR EHJA 180225Z AUTO 19006KT 9999 NSC 15/15 Q1021
03:55
V
15 °C 10 km+ - 210° 210° 5 kt METAR EHJA 180155Z AUTO 21005KT 9999 NSC 15/15 Q1022
03:25
V
15 °C 10 km+ - 200° 200° 6 kt METAR EHJA 180125Z AUTO 20006KT 9999 NSC 15/14 Q1022
02:55
V
15 °C 10 km+ - 210° 210° 5 kt METAR EHJA 180055Z AUTO 21005KT 9999 NSC 15/14 Q1022
02:25
V
15 °C 10 km+ - 210° 210° 6 kt METAR EHJA 180025Z AUTO 21006KT 9999 NSC 15/14 Q1022
01:55
V
15 °C 10 km+ - 210° 210° 5 kt METAR EHJA 172355Z AUTO 21005KT 9999 NSC 15/14 Q1022
01:25
V
15 °C 10 km+ - 210° 210° 5 kt METAR EHJA 172325Z AUTO 21005KT 9999 NSC 15/14 Q1022
00:55
V
15 °C 10 km+ - 210° 210° 5 kt METAR EHJA 172255Z AUTO 21005KT 9999 NSC 15/14 Q1022
00:25
V
15 °C 10 km+ - 210° 210° 4 kt METAR EHJA 172225Z AUTO 21004KT 9999 NSC 15/14 Q1022

July 17, 2024

Time Code Weather Temp. Visibility Ceiling Wind METAR/SPECI
23:55
V
15 °C 10 km+ - 210° 210° 4 kt METAR EHJA 172155Z AUTO 21004KT 9999 NSC 15/14 Q1022
23:25
V
15 °C 10 km+ - 230° 230° 7 kt METAR EHJA 172125Z AUTO 23007KT 9999 NCD 15/14 Q1022
22:55
V
15 °C 10 km+ - 230° 230° 8 kt METAR EHJA 172055Z AUTO 23008KT 9999 NSC 15/14 Q1022
22:25
V
15 °C 10 km+ - 230° 230° 7 kt METAR EHJA 172025Z AUTO 23007KT 9999 NSC 15/14 Q1022
21:55
V
15 °C 10 km+ - 230° 230° 7 kt METAR EHJA 171955Z AUTO 23007KT 9999 NCD 15/14 Q1022
21:25
V
15 °C 10 km+ - 230° 230° 8 kt METAR EHJA 171925Z AUTO 23008KT 9999 NSC 15/14 Q1022
20:55
V
15 °C 10 km+ - 230° 230° 6 kt METAR EHJA 171855Z AUTO 23006KT 9999 NSC 15/14 Q1021
20:25
V
15 °C 10 km+ - 230° 230° 5 kt METAR EHJA 171825Z AUTO 23005KT 9999 NSC 15/14 Q1021
19:55
V
15 °C 10 km+ - 230° 230° 5 kt METAR EHJA 171755Z AUTO 23005KT 9999 NSC 15/14 Q1021
19:25
V
15 °C 10 km+ - 230° 230° 6 kt METAR EHJA 171725Z AUTO 23006KT 9999 FEW006/// 15/14 Q1021
18:55
I
15 °C 10 km+ 700 ft 240° 240° 5 kt METAR EHJA 171655Z AUTO 24005KT 9999 SCT006/// BKN007/// 15/14 Q1021
18:25
I
15 °C 10 km+ 600 ft 250° 250° 7 kt METAR EHJA 171625Z AUTO 25007KT 9999 BKN006/// 15/13 Q1021
17:55
I
15 °C 10 km+ 700 ft 260° 260° 10 kt METAR EHJA 171555Z AUTO 26010KT 9999 SCT006/// OVC007/// 15/13 Q1021
17:25
I
15 °C 10 km+ 600 ft 270° 270° 10 kt METAR EHJA 171525Z AUTO 27010KT 9999 BKN006/// OVC007/// 15/13 Q1021
16:55
I
15 °C 10 km+ 500 ft 260° 260° 11 kt METAR EHJA 171455Z AUTO 26011KT 9999 SCT004/// BKN005/// OVC006/// 15/13 Q1021
16:25
L
15 °C 10 km+ 400 ft 260° 260° 11 kt METAR EHJA 171425Z AUTO 26011KT 9999 BKN004/// OVC005/// 15/14 Q1021
15:55
L
15 °C 10 km+ 400 ft 260° 260° 10 kt METAR EHJA 171355Z AUTO 26010KT 9999 BKN004/// BKN005/// 15/14 Q1020
15:25
I
15 °C 10 km+ 500 ft 260° 260° 10 kt METAR EHJA 171325Z AUTO 26010KT 9999 FEW004/// BKN005/// BKN016/// 15/14 Q1020
14:55
M
15 °C 10 km+ 1,300 ft 260° 260° 13 kt METAR EHJA 171255Z AUTO 26013KT 9999 FEW004/// SCT011/// BKN013/// 15/14 Q1020
14:25
L
15 °C 10 km+ 400 ft 260° 260° 9 kt METAR EHJA 171225Z AUTO 26009KT 9999 SCT003/// BKN004/// BKN007/// 15/14 Q1020
13:55
I
15 °C 8 km 600 ft 270° 270° 10 kt METAR EHJA 171155Z AUTO 27010KT 8000 FEW003/// SCT004/// BKN006/// 15/14 Q1020
13:25
M
15 °C 9 km 1,000 ft 270° 270° 9 kt METAR EHJA 171125Z AUTO 27009KT 9000 FEW003/// SCT004/// BKN010/// 15/14 Q1019
12:55
M
15 °C 10 km+ 2,800 ft 260° 260° 7 kt METAR EHJA 171055Z AUTO 26007KT 9999 FEW003/// SCT004/// BKN028/// 15/14 Q1019
12:25
V
15 °C 10 km+ - 250° 250° 6 kt METAR EHJA 171025Z AUTO 25006KT 9999 SCT028/// 15/14 Q1019
11:55
V
15 °C 10 km+ - 250° 250° 5 kt METAR EHJA 170955Z AUTO 25005KT 9999 NSC 15/14 Q1019
11:25
V
15 °C 10 km+ - 250° 250° 5 kt METAR EHJA 170925Z AUTO 25005KT 9999 NSC 15/14 Q1018
10:55
V
15 °C 10 km+ - 240° 240° 8 kt METAR EHJA 170855Z AUTO 24008KT 9999 NSC 15/14 Q1018
10:25
V
15 °C 10 km+ - 240° 240° 8 kt METAR EHJA 170825Z AUTO 24008KT 9999 NSC 15/14 Q1018
09:55
V
15 °C 10 km+ - 240° 240° 9 kt METAR EHJA 170755Z AUTO 24009KT 9999 NSC 15/14 Q1017
09:25
V
15 °C 10 km+ - 250° 250° 8 kt METAR EHJA 170725Z AUTO 25008KT 9999 NSC 15/14 Q1017
08:55
V
15 °C 10 km+ - 250° 250° 8 kt METAR EHJA 170655Z AUTO 25008KT 240V300 9999 NSC 15/14 Q1017
08:25
V
15 °C 10 km+ - 270° 270° 9 kt METAR EHJA 170625Z AUTO 27009KT 9999 NSC 15/13 Q1016
07:55
V
15 °C 10 km+ - 290° 290° 8 kt METAR EHJA 170555Z AUTO 29008KT 9999 FEW005/// 15/14 Q1016
Report a change